createdAt,value
2019-03-26T00:00:46.557Z,6.80
2019-03-26T00:03:17.579Z,6.90
2019-03-26T00:05:49.070Z,6.90
2019-03-26T00:08:20.218Z,7.00
2019-03-26T00:10:51.972Z,6.90
2019-03-26T00:13:24.186Z,6.80
2019-03-26T00:15:55.336Z,6.80
2019-03-26T00:18:26.463Z,7.00
2019-03-26T00:20:57.647Z,6.90
2019-03-26T00:23:28.880Z,6.90
2019-03-26T00:26:00.809Z,6.90
2019-03-26T00:28:31.998Z,6.90
2019-03-26T00:31:03.286Z,6.80
2019-03-26T00:33:36.646Z,7.00
2019-03-26T00:36:07.231Z,7.00
2019-03-26T00:38:40.354Z,7.10
2019-03-26T00:41:11.735Z,7.10
2019-03-26T00:43:42.915Z,7.10
2019-03-26T00:46:14.408Z,7.00
2019-03-26T00:48:45.347Z,6.90
2019-03-26T00:51:16.798Z,6.90
2019-03-26T00:53:48.237Z,7.00
2019-03-26T00:56:19.844Z,7.10
2019-03-26T00:58:51.208Z,7.00
2019-03-26T01:01:24.444Z,6.90
2019-03-26T01:03:55.920Z,6.80
2019-03-26T01:06:27.147Z,6.80
2019-03-26T01:08:58.326Z,6.90
2019-03-26T01:11:29.363Z,6.90
2019-03-26T01:14:00.834Z,7.00
2019-03-26T01:16:31.975Z,7.10
2019-03-26T01:19:03.236Z,7.20
2019-03-26T01:21:34.418Z,7.20
2019-03-26T01:24:05.491Z,7.10
2019-03-26T01:26:36.930Z,7.10
2019-03-26T01:29:08.083Z,7.20
2019-03-26T01:31:39.546Z,7.20
2019-03-26T01:34:10.600Z,7.20
2019-03-26T01:36:42.352Z,7.20
2019-03-26T01:39:13.756Z,7.20
2019-03-26T01:41:44.947Z,7.20
2019-03-26T01:44:16.500Z,7.20
2019-03-26T01:46:47.714Z,7.20
2019-03-26T01:49:18.951Z,7.20
2019-03-26T01:51:50.235Z,7.20
2019-03-26T01:54:21.821Z,7.20
2019-03-26T01:56:53.299Z,7.20
2019-03-26T01:59:25.307Z,7.00
2019-03-26T02:01:59.712Z,7.20
2019-03-26T02:04:30.824Z,7.10
2019-03-26T02:07:02.338Z,7.00
2019-03-26T02:09:34.182Z,6.90
2019-03-26T02:12:05.319Z,7.00
2019-03-26T02:14:36.397Z,7.10
2019-03-26T02:17:07.478Z,7.00
2019-03-26T02:19:38.940Z,6.90
2019-03-26T02:22:10.439Z,7.00
2019-03-26T02:24:42.011Z,6.80
2019-03-26T02:27:13.117Z,6.90
2019-03-26T02:29:44.209Z,7.00
2019-03-26T02:32:15.350Z,7.10
2019-03-26T02:34:46.514Z,6.60
2019-03-26T02:37:17.622Z,6.90
2019-03-26T02:39:48.769Z,7.10
2019-03-26T02:42:19.866Z,7.10
2019-03-26T02:44:51.062Z,7.10
2019-03-26T02:47:22.239Z,7.20
2019-03-26T02:49:53.401Z,7.00
2019-03-26T02:52:24.456Z,6.90
2019-03-26T02:54:55.509Z,7.00
2019-03-26T02:57:26.572Z,7.20
2019-03-26T02:59:57.738Z,7.10
2019-03-26T03:02:29.216Z,7.10
2019-03-26T03:05:00.408Z,6.90
2019-03-26T03:07:31.829Z,7.10
2019-03-26T03:10:02.973Z,7.10
2019-03-26T03:12:34.723Z,7.10
2019-03-26T03:15:06.832Z,7.20
2019-03-26T03:17:37.929Z,7.10
2019-03-26T03:20:11.860Z,7.00
2019-03-26T03:22:42.978Z,7.00
2019-03-26T03:25:14.472Z,7.00
2019-03-26T03:27:45.584Z,6.90
2019-03-26T03:30:17.042Z,6.90
2019-03-26T03:32:48.344Z,6.90
2019-03-26T03:35:19.314Z,6.90
2019-03-26T03:37:50.637Z,6.70
2019-03-26T03:40:21.619Z,7.00
2019-03-26T03:42:53.194Z,7.20
2019-03-26T03:45:31.052Z,7.00
2019-03-26T03:48:03.581Z,7.20
2019-03-26T03:50:35.341Z,7.10
2019-03-26T03:53:08.265Z,7.10
2019-03-26T03:55:39.363Z,7.00
2019-03-26T03:58:10.543Z,7.10
2019-03-26T04:00:42.699Z,7.30
2019-03-26T04:03:13.994Z,7.30
2019-03-26T04:05:45.413Z,7.40
2019-03-26T04:08:16.567Z,7.50
2019-03-26T04:10:47.887Z,7.50
2019-03-26T04:13:19.300Z,7.30
2019-03-26T04:15:50.385Z,7.30
2019-03-26T04:18:24.870Z,7.20
2019-03-26T04:20:55.939Z,7.20
2019-03-26T04:23:27.503Z,7.30
2019-03-26T04:25:58.786Z,7.30
2019-03-26T04:28:30.433Z,7.30
2019-03-26T04:31:01.943Z,7.20
2019-03-26T04:33:33.314Z,7.20
2019-03-26T04:36:04.446Z,7.20
2019-03-26T04:38:35.817Z,7.30
2019-03-26T04:41:07.414Z,7.40
2019-03-26T04:43:38.851Z,7.30
2019-03-26T04:46:10.022Z,7.40
2019-03-26T04:48:41.016Z,7.50
2019-03-26T04:51:12.061Z,7.40
2019-03-26T04:53:43.242Z,7.50
2019-03-26T04:56:14.256Z,7.50
2019-03-26T04:58:46.374Z,7.60
2019-03-26T05:01:17.770Z,7.50
2019-03-26T05:03:49.171Z,7.50
2019-03-26T05:06:20.543Z,7.50
2019-03-26T05:08:52.170Z,7.60
2019-03-26T05:11:23.380Z,7.60
2019-03-26T05:13:54.450Z,7.60
2019-03-26T05:16:25.498Z,7.60
2019-03-26T05:18:56.649Z,7.60
2019-03-26T05:21:28.043Z,7.50
2019-03-26T05:23:59.068Z,7.50
2019-03-26T05:26:30.671Z,7.50
2019-03-26T05:29:01.785Z,7.40
2019-03-26T05:31:32.808Z,7.40
2019-03-26T05:34:03.961Z,7.50
2019-03-26T05:36:50.396Z,7.40
2019-03-26T05:39:10.507Z,7.40
2019-03-26T05:41:41.745Z,7.40
2019-03-26T05:44:12.941Z,7.40
2019-03-26T05:46:43.917Z,7.50
2019-03-26T05:49:18.205Z,7.50
2019-03-26T05:51:49.347Z,7.60
2019-03-26T05:54:20.264Z,7.60
2019-03-26T05:56:51.242Z,7.60
2019-03-26T05:59:22.218Z,7.70
2019-03-26T06:01:53.296Z,7.70
2019-03-26T06:04:24.405Z,7.70
2019-03-26T06:07:04.857Z,7.60
2019-03-26T06:09:28.551Z,7.70
2019-03-26T06:11:59.985Z,7.80
2019-03-26T06:14:31.108Z,7.70
2019-03-26T06:17:02.112Z,7.60
2019-03-26T06:19:33.131Z,7.70
2019-03-26T06:22:04.585Z,7.70
2019-03-26T06:24:35.666Z,7.90
2019-03-26T06:27:07.073Z,7.60
2019-03-26T06:29:38.798Z,7.60
2019-03-26T06:32:09.863Z,7.70
2019-03-26T06:34:41.124Z,7.80
2019-03-26T06:37:17.932Z,7.50
2019-03-26T06:39:45.575Z,7.40
2019-03-26T06:42:16.668Z,7.20
2019-03-26T06:44:47.742Z,6.90
2019-03-26T06:47:18.753Z,7.10
2019-03-26T06:49:50.058Z,7.20
2019-03-26T06:52:21.005Z,7.30
2019-03-26T06:54:52.074Z,7.20
2019-03-26T06:57:34.947Z,7.40
2019-03-26T06:59:57.005Z,7.50
2019-03-26T07:02:28.123Z,7.40
2019-03-26T07:04:59.213Z,7.40
2019-03-26T07:07:31.802Z,7.70
2019-03-26T07:10:03.145Z,7.90
2019-03-26T07:12:34.292Z,8.10
2019-03-26T07:15:06.375Z,8.20
2019-03-26T07:17:39.755Z,8.40
2019-03-26T07:20:12.042Z,8.30
2019-03-26T07:22:43.141Z,8.30
2019-03-26T07:25:15.776Z,8.40
2019-03-26T07:27:59.870Z,8.40
2019-03-26T07:30:42.334Z,8.40
2019-03-26T07:33:13.505Z,8.50
2019-03-26T07:35:50.680Z,8.70
2019-03-26T07:38:22.104Z,8.30
2019-03-26T07:40:53.295Z,8.80
2019-03-26T07:43:24.322Z,8.90
2019-03-26T07:45:56.534Z,9.10
2019-03-26T07:48:27.552Z,9.20
2019-03-26T07:50:58.948Z,9.50
2019-03-26T07:53:30.254Z,9.20
2019-03-26T07:56:01.850Z,8.70
2019-03-26T07:58:33.484Z,8.60
2019-03-26T08:01:04.702Z,8.80
2019-03-26T08:03:35.946Z,8.50
2019-03-26T08:06:07.852Z,8.50
2019-03-26T08:08:43.293Z,8.40
2019-03-26T08:11:15.414Z,7.90
2019-03-26T08:13:47.033Z,8.10
2019-03-26T08:16:19.110Z,8.40
2019-03-26T08:18:50.486Z,8.90
2019-03-26T08:21:21.939Z,8.50
2019-03-26T08:24:01.222Z,8.40
2019-03-26T08:26:34.814Z,8.80
2019-03-26T08:29:07.415Z,8.90
2019-03-26T08:31:38.903Z,9.20
2019-03-26T08:34:16.334Z,9.10
2019-03-26T08:36:53.627Z,9.00
2019-03-26T08:39:24.785Z,9.10
2019-03-26T08:42:08.692Z,9.00
2019-03-26T08:44:41.927Z,9.30
2019-03-26T08:47:13.097Z,9.50
2019-03-26T08:49:44.291Z,9.90
2019-03-26T08:52:25.580Z,9.90
2019-03-26T08:54:57.021Z,8.70
2019-03-26T08:57:28.168Z,8.90
2019-03-26T08:59:59.593Z,9.50
2019-03-26T09:02:37.527Z,9.60
2019-03-26T09:05:09.801Z,9.60
2019-03-26T09:07:43.054Z,9.40
2019-03-26T09:10:14.977Z,9.60
2019-03-26T09:12:46.564Z,9.50
2019-03-26T09:15:17.685Z,9.50
2019-03-26T09:17:48.863Z,9.80
2019-03-26T09:20:28.204Z,9.70
2019-03-26T09:23:01.414Z,9.30
2019-03-26T09:25:32.747Z,9.50
2019-03-26T09:28:04.505Z,9.30
2019-03-26T09:30:39.175Z,9.30
2019-03-26T09:33:10.088Z,9.00
2019-03-26T09:35:48.910Z,8.80
2019-03-26T09:38:19.956Z,8.60
2019-03-26T09:40:50.973Z,8.60
2019-03-26T09:43:22.586Z,9.00
2019-03-26T09:45:53.920Z,8.80
2019-03-26T09:48:25.428Z,8.90
2019-03-26T09:50:56.854Z,9.20
2019-03-26T09:53:28.124Z,9.50
2019-03-26T09:55:59.705Z,9.20
2019-03-26T09:58:31.053Z,9.40
2019-03-26T10:01:09.605Z,10.10
2019-03-26T10:03:40.688Z,10.00
2019-03-26T10:06:22.805Z,10.30
2019-03-26T10:08:52.698Z,10.00
2019-03-26T10:11:21.480Z,9.90
2019-03-26T10:13:52.824Z,9.90
2019-03-26T10:16:23.829Z,9.80
2019-03-26T10:18:54.908Z,9.50
2019-03-26T10:21:26.020Z,9.70
2019-03-26T10:24:03.229Z,9.70
2019-03-26T10:26:41.771Z,10.00
2019-03-26T10:29:29.180Z,10.10
2019-03-26T10:31:47.070Z,10.00
2019-03-26T10:34:18.510Z,9.80
2019-03-26T10:36:51.999Z,9.80
2019-03-26T10:39:23.013Z,9.70
2019-03-26T10:41:54.931Z,9.40
2019-03-26T10:44:26.167Z,9.30
2019-03-26T10:46:57.287Z,9.40
2019-03-26T10:49:28.421Z,9.60
2019-03-26T10:51:59.542Z,8.90
2019-03-26T10:54:31.082Z,8.90
2019-03-26T10:57:02.824Z,9.10
2019-03-26T10:59:34.307Z,8.70
2019-03-26T11:02:05.557Z,8.70
2019-03-26T11:04:37.234Z,8.90
2019-03-26T11:07:08.815Z,8.70
2019-03-26T11:09:40.992Z,9.10
2019-03-26T11:12:11.958Z,9.30
2019-03-26T11:14:43.101Z,9.30
2019-03-26T11:17:18.753Z,9.30
2019-03-26T11:19:50.286Z,9.10
2019-03-26T11:22:32.712Z,9.10
2019-03-26T11:25:04.280Z,9.00
2019-03-26T11:27:35.768Z,9.30
2019-03-26T11:30:10.602Z,9.30
2019-03-26T11:32:42.617Z,9.20
2019-03-26T11:35:14.113Z,9.10
2019-03-26T11:37:45.656Z,9.00
2019-03-26T11:40:17.835Z,9.40
2019-03-26T11:42:49.485Z,9.30
2019-03-26T11:45:20.806Z,10.00
2019-03-26T11:47:54.687Z,9.90
2019-03-26T11:50:25.793Z,10.50
2019-03-26T11:52:57.252Z,11.10
2019-03-26T11:55:28.415Z,10.30
2019-03-26T11:57:59.713Z,10.30
2019-03-26T12:00:33.896Z,10.50
2019-03-26T12:03:05.322Z,10.00
2019-03-26T12:05:36.940Z,10.10
2019-03-26T12:08:07.985Z,9.80
2019-03-26T12:10:40.578Z,9.80
2019-03-26T12:13:11.541Z,9.60
2019-03-26T12:15:42.573Z,9.70
2019-03-26T12:18:13.683Z,9.80
2019-03-26T12:20:45.342Z,10.00
2019-03-26T12:23:16.749Z,10.00
2019-03-26T12:25:47.919Z,9.80
2019-03-26T12:28:19.348Z,9.80
2019-03-26T12:30:50.516Z,9.80
2019-03-26T12:33:21.899Z,9.80
2019-03-26T12:35:52.916Z,9.80
2019-03-26T12:38:24.923Z,10.20
2019-03-26T12:40:56.030Z,10.00
2019-03-26T12:43:27.150Z,9.50
2019-03-26T12:46:01.609Z,9.50
2019-03-26T12:48:31.381Z,9.30
2019-03-26T12:51:03.037Z,9.20
2019-03-26T12:53:35.052Z,9.60
2019-03-26T12:56:06.326Z,9.30
2019-03-26T12:58:37.515Z,9.60
2019-03-26T13:01:08.744Z,10.10
2019-03-26T13:03:39.864Z,9.60
2019-03-26T13:06:11.247Z,10.00
2019-03-26T13:08:42.650Z,10.40
2019-03-26T13:11:16.999Z,9.90
2019-03-26T13:13:46.975Z,10.00
2019-03-26T13:16:18.056Z,10.30
2019-03-26T13:18:49.316Z,10.70
2019-03-26T13:21:20.567Z,10.70
2019-03-26T13:23:51.634Z,10.60
2019-03-26T13:26:23.074Z,11.10
2019-03-26T13:28:54.474Z,11.10
2019-03-26T13:31:25.524Z,11.30
2019-03-26T13:33:56.593Z,11.10
2019-03-26T13:36:27.749Z,11.20
2019-03-26T13:38:58.936Z,11.10
2019-03-26T13:41:32.240Z,10.80
2019-03-26T13:44:03.343Z,10.80
2019-03-26T13:46:34.424Z,10.60
2019-03-26T13:49:05.965Z,10.50
2019-03-26T13:51:37.383Z,10.40
2019-03-26T13:54:09.058Z,10.20
2019-03-26T13:56:41.326Z,10.00
2019-03-26T13:59:12.355Z,10.10
2019-03-26T14:01:43.881Z,10.00
2019-03-26T14:04:15.310Z,10.10
2019-03-26T14:07:05.189Z,10.30
2019-03-26T14:09:36.314Z,10.00
2019-03-26T14:12:07.434Z,10.10
2019-03-26T14:14:40.601Z,10.20
2019-03-26T14:17:11.716Z,10.40
2019-03-26T14:19:43.176Z,10.00
2019-03-26T14:22:14.184Z,10.30
2019-03-26T14:24:45.993Z,10.10
2019-03-26T14:27:17.239Z,10.20
2019-03-26T14:29:48.483Z,9.80
2019-03-26T14:32:19.705Z,10.20
2019-03-26T14:34:51.847Z,10.40
2019-03-26T14:37:23.079Z,10.10
2019-03-26T14:39:55.299Z,10.00
2019-03-26T14:42:26.430Z,10.20
2019-03-26T14:44:57.530Z,10.50
2019-03-26T14:47:28.725Z,10.20
2019-03-26T14:50:07.380Z,10.30
2019-03-26T14:52:38.511Z,10.30
2019-03-26T14:55:10.061Z,9.90
2019-03-26T14:57:41.254Z,9.80
2019-03-26T15:00:13.417Z,10.10
2019-03-26T15:02:44.806Z,9.80
2019-03-26T15:05:16.076Z,10.10
2019-03-26T15:07:47.281Z,10.00
2019-03-26T15:10:26.595Z,10.20
2019-03-26T15:12:57.724Z,9.80
2019-03-26T15:15:28.797Z,9.70
2019-03-26T15:17:59.937Z,9.60
2019-03-26T15:20:31.347Z,9.80
2019-03-26T15:23:02.700Z,9.60
2019-03-26T15:25:34.048Z,9.70
2019-03-26T15:28:05.446Z,9.60
2019-03-26T15:30:36.566Z,9.50
2019-03-26T15:33:08.050Z,9.50
2019-03-26T15:35:39.207Z,9.50
2019-03-26T15:38:10.646Z,9.70
2019-03-26T15:40:42.034Z,9.70
2019-03-26T15:43:13.114Z,9.80
2019-03-26T15:45:44.161Z,9.90
2019-03-26T15:48:15.261Z,10.10
2019-03-26T15:50:47.567Z,10.10
2019-03-26T15:53:18.619Z,10.00
2019-03-26T15:55:49.726Z,9.90
2019-03-26T15:58:20.785Z,10.10
2019-03-26T16:00:51.941Z,10.00
2019-03-26T16:03:23.290Z,10.10
2019-03-26T16:05:54.420Z,9.90
2019-03-26T16:08:25.573Z,9.80
2019-03-26T16:11:15.442Z,9.70
2019-03-26T16:13:46.862Z,9.30
2019-03-26T16:16:18.010Z,9.40
2019-03-26T16:18:48.940Z,9.50
2019-03-26T16:21:20.440Z,9.20
2019-03-26T16:23:51.700Z,9.30
2019-03-26T16:26:23.247Z,8.90
2019-03-26T16:28:54.489Z,8.50
2019-03-26T16:31:25.536Z,8.70
2019-03-26T16:33:56.818Z,8.80
2019-03-26T16:36:28.119Z,8.90
2019-03-26T16:38:59.193Z,8.90
2019-03-26T16:41:30.321Z,9.00
2019-03-26T16:44:01.392Z,9.10
2019-03-26T16:46:32.496Z,9.00
2019-03-26T16:49:03.681Z,9.10
2019-03-26T16:51:38.177Z,9.10
2019-03-26T16:54:09.270Z,9.30
2019-03-26T16:56:40.465Z,9.30
2019-03-26T16:59:11.587Z,9.40
2019-03-26T17:01:43.029Z,9.60
2019-03-26T17:04:14.129Z,9.50
2019-03-26T17:06:45.342Z,9.60
2019-03-26T17:09:16.459Z,9.80
2019-03-26T17:11:47.899Z,9.80
2019-03-26T17:14:19.266Z,9.80
2019-03-26T17:16:50.356Z,9.60
2019-03-26T17:19:21.528Z,9.70
2019-03-26T17:21:52.682Z,9.80
2019-03-26T17:24:23.699Z,9.70
2019-03-26T17:26:55.048Z,9.60
2019-03-26T17:29:35.448Z,9.80
2019-03-26T17:32:06.536Z,10.00
2019-03-26T17:34:37.991Z,10.00
2019-03-26T17:37:09.208Z,10.00
2019-03-26T17:39:40.348Z,9.90
2019-03-26T17:42:17.424Z,9.60
2019-03-26T17:44:44.650Z,9.60
2019-03-26T17:47:15.724Z,9.50
2019-03-26T17:49:46.645Z,9.60
2019-03-26T17:52:17.950Z,9.70
2019-03-26T17:54:48.990Z,9.80
2019-03-26T17:57:20.173Z,9.80
2019-03-26T17:59:51.105Z,9.80
2019-03-26T18:02:22.333Z,9.70
2019-03-26T18:04:53.620Z,9.90
2019-03-26T18:07:24.665Z,9.80
2019-03-26T18:09:56.061Z,10.00
2019-03-26T18:12:31.000Z,10.00
2019-03-26T18:15:00.365Z,9.80
2019-03-26T18:17:31.444Z,9.90
2019-03-26T18:20:02.454Z,9.70
2019-03-26T18:22:33.432Z,9.80
2019-03-26T18:25:04.696Z,9.90
2019-03-26T18:27:35.719Z,9.90
2019-03-26T18:30:07.269Z,9.80
2019-03-26T18:32:38.928Z,9.70
2019-03-26T18:35:10.376Z,9.70
2019-03-26T18:37:41.411Z,9.70
2019-03-26T18:40:12.604Z,9.60
2019-03-26T18:42:44.670Z,9.60
2019-03-26T18:45:15.968Z,9.60
2019-03-26T18:47:47.262Z,9.60
2019-03-26T18:50:19.425Z,9.80
2019-03-26T18:52:50.836Z,9.80
2019-03-26T18:55:25.039Z,9.80
2019-03-26T18:57:55.395Z,9.90
2019-03-26T19:00:36.441Z,9.90
2019-03-26T19:03:08.329Z,9.90
2019-03-26T19:05:40.874Z,9.80
2019-03-26T19:08:12.244Z,9.80
2019-03-26T19:10:43.382Z,9.90
2019-03-26T19:13:19.807Z,9.50
2019-03-26T19:15:47.197Z,9.70
2019-03-26T19:18:18.717Z,9.70
2019-03-26T19:21:01.396Z,9.70
2019-03-26T19:23:22.612Z,9.70
2019-03-26T19:25:53.556Z,9.60
2019-03-26T19:28:24.634Z,9.60
2019-03-26T19:30:55.755Z,9.60
2019-03-26T19:33:26.760Z,9.60
2019-03-26T19:35:58.903Z,9.50
2019-03-26T19:38:29.959Z,9.50
2019-03-26T19:41:01.398Z,9.70
2019-03-26T19:43:32.637Z,9.60
2019-03-26T19:46:03.756Z,9.70
2019-03-26T19:48:36.862Z,9.70
2019-03-26T19:51:09.357Z,9.70
2019-03-26T19:53:40.404Z,9.70
2019-03-26T19:56:11.472Z,9.70
2019-03-26T19:58:42.680Z,9.70
2019-03-26T20:01:13.819Z,9.70
2019-03-26T20:03:44.926Z,9.70
2019-03-26T20:06:16.536Z,9.70
2019-03-26T20:08:47.473Z,9.60
2019-03-26T20:11:18.678Z,9.60
2019-03-26T20:13:50.081Z,9.50
2019-03-26T20:16:21.459Z,9.40
2019-03-26T20:18:52.688Z,9.50
2019-03-26T20:21:23.736Z,9.50
2019-03-26T20:23:54.885Z,9.30
2019-03-26T20:26:26.199Z,9.50
2019-03-26T20:28:57.294Z,9.50
2019-03-26T20:31:28.264Z,9.60
2019-03-26T20:33:59.440Z,9.60
2019-03-26T20:36:30.583Z,9.60
2019-03-26T20:39:02.055Z,9.40
2019-03-26T20:41:33.447Z,9.30
2019-03-26T20:44:04.755Z,9.40
2019-03-26T20:46:36.188Z,9.20
2019-03-26T20:49:07.299Z,9.40
2019-03-26T20:51:38.688Z,9.40
2019-03-26T20:54:09.763Z,9.30
2019-03-26T20:56:41.068Z,9.30
2019-03-26T20:59:12.405Z,9.30
2019-03-26T21:01:45.505Z,9.40
2019-03-26T21:04:19.613Z,9.30
2019-03-26T21:06:50.679Z,9.40
2019-03-26T21:09:22.088Z,9.50
2019-03-26T21:11:53.208Z,9.50
2019-03-26T21:14:24.855Z,9.50
2019-03-26T21:16:56.013Z,9.50
2019-03-26T21:19:27.583Z,9.40
2019-03-26T21:21:58.711Z,9.30
2019-03-26T21:24:29.927Z,9.40
2019-03-26T21:27:01.356Z,9.40
2019-03-26T21:29:32.837Z,9.40
2019-03-26T21:32:05.968Z,9.40
2019-03-26T21:34:37.651Z,9.40
2019-03-26T21:37:08.949Z,9.40
2019-03-26T21:39:40.134Z,9.40
2019-03-26T21:42:11.256Z,9.40
2019-03-26T21:44:42.716Z,9.40
2019-03-26T21:47:14.122Z,9.50
2019-03-26T21:49:48.409Z,9.40
2019-03-26T21:52:18.595Z,9.30
2019-03-26T21:54:50.037Z,9.40
2019-03-26T21:57:21.815Z,9.40
2019-03-26T21:59:52.999Z,9.40
2019-03-26T22:02:24.116Z,9.40
2019-03-26T22:04:55.217Z,9.40
2019-03-26T22:07:26.330Z,9.50
2019-03-26T22:09:57.426Z,9.50
2019-03-26T22:12:28.670Z,9.40
2019-03-26T22:15:00.355Z,9.40
2019-03-26T22:17:31.558Z,9.40
2019-03-26T22:20:02.714Z,9.40
2019-03-26T22:22:34.105Z,9.40
2019-03-26T22:25:06.424Z,9.40
2019-03-26T22:27:37.483Z,9.30
2019-03-26T22:30:09.418Z,9.40
2019-03-26T22:32:40.528Z,9.30
2019-03-26T22:35:12.789Z,9.30
2019-03-26T22:37:44.040Z,9.30
2019-03-26T22:40:15.832Z,9.20
2019-03-26T22:42:46.962Z,9.10
2019-03-26T22:45:18.107Z,9.10
2019-03-26T22:47:49.200Z,9.10
2019-03-26T22:50:20.375Z,9.10
2019-03-26T22:52:51.532Z,9.10
2019-03-26T22:55:22.906Z,9.10
2019-03-26T22:57:54.219Z,9.20
2019-03-26T23:00:27.223Z,9.20
2019-03-26T23:02:58.428Z,9.20
2019-03-26T23:05:29.512Z,9.30
2019-03-26T23:08:01.151Z,9.20
2019-03-26T23:10:32.751Z,9.20
2019-03-26T23:13:03.814Z,9.20
2019-03-26T23:15:35.625Z,9.20
2019-03-26T23:18:07.005Z,9.20
2019-03-26T23:20:38.720Z,9.20
2019-03-26T23:23:09.869Z,9.20
2019-03-26T23:25:40.896Z,9.20
2019-03-26T23:28:11.985Z,9.20
2019-03-26T23:30:43.043Z,9.10
2019-03-26T23:33:14.350Z,9.10
2019-03-26T23:35:45.485Z,9.10
2019-03-26T23:38:16.419Z,9.00
2019-03-26T23:40:47.547Z,9.00
2019-03-26T23:43:18.617Z,9.00
2019-03-26T23:45:50.002Z,9.10
2019-03-26T23:48:21.403Z,9.00
2019-03-26T23:50:52.417Z,9.00
2019-03-26T23:53:23.729Z,8.90
2019-03-26T23:55:54.904Z,8.90
2019-03-26T23:58:25.850Z,8.90
